Time;durP1;ratioP1;P1;durP2;ratioP2;P2;SDS_P1;SDS_P2;PMS_P1;PMS_P2;Temp;Humidity;BMP_temperature;BMP_pressure;BME280_temperature;BME280_humidity;BME280_pressure;Samples;Min_cycle;Max_cycle;Signal;HPM_P1;HPM_P2
2022/09/08 00:01:32;;;;;;;6.73;4.43;;;;;;;17.97;100.00;100881.25;2616685;36;20122;-50
2022/09/08 00:04:00;;;;;;;7.07;4.82;;;;;;;17.94;100.00;100873.44;2615860;36;20302;-52
2022/09/08 00:06:31;;;;;;;7.20;5.10;;;;;;;17.96;100.00;100879.53;2616269;36;20089;-54
2022/09/08 00:09:00;;;;;;;8.77;4.80;;;;;;;18.00;100.00;100876.25;2615262;36;20337;-52
2022/09/08 00:11:34;;;;;;;6.35;4.50;;;;;;;18.01;100.00;100868.97;2614381;31;20401;-53
2022/09/08 00:14:08;;;;;;;7.72;4.18;;;;;;;18.08;100.00;100869.91;2611422;36;20053;-51
2022/09/08 00:16:40;;;;;;;6.68;4.03;;;;;;;18.13;100.00;100856.56;2614096;31;21766;-53
2022/09/08 00:19:08;;;;;;;7.15;4.32;;;;;;;18.16;100.00;100847.19;2616452;31;20577;-53
2022/09/08 00:21:37;;;;;;;9.23;4.00;;;;;;;18.10;100.00;100848.78;2616682;36;20031;-55
2022/09/08 00:24:05;;;;;;;7.03;4.20;;;;;;;18.06;100.00;100839.28;2615264;36;20027;-55
2022/09/08 00:26:36;;;;;;;7.05;4.22;;;;;;;18.02;100.00;100830.66;2614825;36;20049;-56
2022/09/08 00:29:05;;;;;;;6.03;4.03;;;;;;;18.06;100.00;100825.66;2615517;36;20034;-51
2022/09/08 00:31:33;;;;;;;7.72;4.20;;;;;;;18.02;100.00;100829.78;2616128;31;20057;-52
2022/09/08 00:34:02;;;;;;;6.35;4.13;;;;;;;17.99;100.00;100831.03;2615063;36;20539;-51
2022/09/08 00:36:31;;;;;;;5.17;3.83;;;;;;;18.08;100.00;100829.06;2616025;36;20057;-55
2022/09/08 00:39:00;;;;;;;8.27;3.75;;;;;;;18.01;100.00;100830.84;2615307;36;20650;-53
2022/09/08 00:41:30;;;;;;;7.93;3.97;;;;;;;18.07;100.00;100827.38;2616123;36;20053;-53
2022/09/08 00:44:02;;;;;;;5.35;3.72;;;;;;;18.08;100.00;100820.91;2615875;36;20023;-52
2022/09/08 00:46:34;;;;;;;6.95;3.92;;;;;;;18.15;100.00;100813.66;2616215;36;20047;-51
2022/09/08 00:49:09;;;;;;;6.50;4.13;;;;;;;18.12;100.00;100811.28;2615836;36;20034;-51
2022/09/08 00:51:41;;;;;;;5.68;3.97;;;;;;;18.16;100.00;100804.44;2616184;31;20034;-53
2022/09/08 00:54:11;;;;;;;5.60;3.97;;;;;;;18.21;100.00;100796.56;2615469;31;20030;-53
2022/09/08 00:56:40;;;;;;;9.13;4.10;;;;;;;18.12;100.00;100794.13;2615459;36;20038;-54
2022/09/08 00:59:12;;;;;;;8.18;4.32;;;;;;;17.95;100.00;100788.84;2616058;31;20034;-51
2022/09/08 01:04:26;;;;;;;8.55;4.45;;;;;;;18.11;100.00;100793.28;2612895;36;20074;-54
2022/09/08 01:12:46;;;;;;;5.82;4.07;;;;;;;17.93;100.00;100784.63;2614450;36;20034;-53
2022/09/08 01:15:19;;;;;;;8.43;4.03;;;;;;;17.98;100.00;100779.47;2615077;36;20129;-51
2022/09/08 01:17:49;;;;;;;7.05;4.10;;;;;;;18.02;100.00;100780.75;2615413;36;20031;-54
2022/09/08 01:20:21;;;;;;;6.65;3.30;;;;;;;18.10;100.00;100779.84;2615276;36;20030;-55
2022/09/08 01:23:02;;;;;;;6.15;4.22;;;;;;;18.02;100.00;100781.63;2615237;36;20046;-56
2022/09/08 01:25:53;;;;;;;5.32;3.03;;;;;;;18.06;100.00;100779.38;2613976;36;20069;-52
2022/09/08 01:28:29;;;;;;;6.95;3.90;;;;;;;18.10;100.00;100777.97;2615504;36;20416;-54
2022/09/08 01:30:58;;;;;;;4.28;3.05;;;;;;;18.09;100.00;100778.16;2615644;36;20022;-50
2022/09/08 01:33:26;;;;;;;4.30;3.28;;;;;;;18.13;100.00;100784.91;2614406;36;20543;-52
2022/09/08 01:35:56;;;;;;;4.50;3.13;;;;;;;18.19;100.00;100795.06;2615700;47;20868;-51
2022/09/08 01:38:24;;;;;;;6.80;3.38;;;;;;;18.19;100.00;100785.00;2615229;36;20038;-56
2022/09/08 01:43:27;;;;;;;11.05;3.45;;;;;;;18.39;100.00;100793.44;2619717;36;20050;-53
2022/09/08 01:45:58;;;;;;;9.38;4.03;;;;;;;18.12;100.00;100786.78;2615476;36;20043;-52
2022/09/08 01:48:27;;;;;;;6.43;3.05;;;;;;;18.21;100.00;100796.56;2615667;36;20464;-54
2022/09/08 01:51:01;;;;;;;4.10;2.60;;;;;;;18.12;100.00;100792.22;2616466;31;20086;-54
2022/09/08 01:53:29;;;;;;;5.85;3.42;;;;;;;18.03;100.00;100799.66;2615917;36;20646;-54
2022/09/08 01:55:57;;;;;;;5.23;2.70;;;;;;;18.00;100.00;100804.63;2614867;36;20050;-56
2022/09/08 01:58:28;;;;;;;4.80;3.13;;;;;;;17.94;100.00;100806.22;2615177;36;20279;-54
2022/09/08 02:00:58;;;;;;;4.93;2.78;;;;;;;17.85;100.00;100812.75;2615976;36;20038;-54
2022/09/08 02:03:27;;;;;;;7.13;3.60;;;;;;;17.72;100.00;100818.81;2615517;36;20034;-54
2022/09/08 02:05:55;;;;;;;6.25;3.63;;;;;;;17.62;100.00;100818.22;2615497;36;20123;-55
2022/09/08 02:08:23;;;;;;;6.03;3.65;;;;;;;17.62;100.00;100823.66;2615457;36;20026;-57
2022/09/08 02:10:55;;;;;;;8.97;3.40;;;;;;;17.65;100.00;100823.31;2614488;31;20038;-55
2022/09/08 02:13:24;;;;;;;8.13;4.30;;;;;;;17.57;100.00;100820.66;2614787;36;20613;-54
2022/09/08 02:16:00;;;;;;;5.78;3.80;;;;;;;17.51;100.00;100817.63;2616000;36;20531;-54
2022/09/08 02:18:30;;;;;;;9.77;4.50;;;;;;;17.44;100.00;100815.84;2615135;36;20675;-54
2022/09/08 02:21:04;;;;;;;6.95;3.85;;;;;;;17.36;100.00;100818.59;2615442;36;20578;-56
2022/09/08 02:23:32;;;;;;;9.02;4.07;;;;;;;17.36;100.00;100826.75;2615005;36;20035;-56
2022/09/08 02:26:01;;;;;;;8.45;4.38;;;;;;;17.30;100.00;100821.03;2614712;36;20041;-56
2022/09/08 02:28:29;;;;;;;5.82;3.85;;;;;;;17.36;100.00;100814.03;2614199;36;20041;-57
2022/09/08 02:31:05;;;;;;;8.07;4.50;;;;;;;17.34;100.00;100810.63;2614153;36;20544;-58
2022/09/08 02:33:34;;;;;;;8.32;3.80;;;;;;;17.41;100.00;100811.59;2608539;36;20126;-56
2022/09/08 02:36:02;;;;;;;7.20;4.38;;;;;;;17.33;100.00;100811.69;2614855;36;20047;-55
2022/09/08 02:38:30;;;;;;;8.95;4.82;;;;;;;17.27;100.00;100805.09;2614852;31;20030;-56
2022/09/08 02:40:59;;;;;;;9.23;4.47;;;;;;;17.36;100.00;100808.59;2614243;36;20042;-53
2022/09/08 02:43:28;;;;;;;11.13;4.32;;;;;;;17.23;100.00;100809.19;2614926;36;20037;-53
2022/09/08 02:45:58;;;;;;;9.45;4.85;;;;;;;17.17;100.00;100818.91;2615388;36;20038;-54
2022/09/08 02:48:30;;;;;;;8.10;4.30;;;;;;;17.21;100.00;100818.56;2614714;36;20041;-52
2022/09/08 02:51:01;;;;;;;9.20;4.53;;;;;;;17.22;100.00;100817.53;2615385;36;20022;-54
2022/09/08 02:53:30;;;;;;;13.80;5.45;;;;;;;17.21;100.00;100804.94;2615645;36;20034;-53
2022/09/08 02:55:59;;;;;;;15.32;6.30;;;;;;;17.27;100.00;100798.78;2615428;36;20030;-53
2022/09/08 02:58:27;;;;;;;;;;;;;;;17.34;100.00;100789.72;2615040;36;20552;-53
2022/09/08 03:00:56;;;;;;;11.13;5.03;;;;;;;17.37;100.00;100790.38;2616032;36;19955;-58
2022/09/08 03:03:25;;;;;;;10.70;4.38;;;;;;;17.30;100.00;100788.41;2616278;36;20039;-58
2022/09/08 03:05:56;;;;;;;;;;;;;;;17.36;100.00;100786.81;2616460;36;20402;-58
2022/09/08 03:08:25;;;;;;;8.30;4.32;;;;;;;17.43;100.00;100778.75;2615782;36;19955;-58
2022/09/08 03:10:54;;;;;;;11.05;4.75;;;;;;;17.37;100.00;100776.78;2615232;36;20544;-58
2022/09/08 03:13:22;;;;;;;9.13;4.10;;;;;;;17.32;100.00;100769.16;2614289;36;20035;-57
2022/09/08 03:15:51;;;;;;;10.68;4.20;;;;;;;17.31;100.00;100762.03;2616178;31;20402;-57
2022/09/08 03:18:20;;;;;;;8.45;3.65;;;;;;;17.36;100.00;100751.47;2615394;36;20030;-58
2022/09/08 03:20:49;;;;;;;26.42;6.72;;;;;;;17.41;100.00;100743.56;2616543;36;20455;-59
2022/09/08 03:23:22;;;;;;;6.68;3.35;;;;;;;17.31;100.00;100745.72;2616072;36;20034;-58
2022/09/08 03:25:51;;;;;;;8.93;4.30;;;;;;;17.30;100.00;100727.72;2613848;36;20057;-58
2022/09/08 03:28:24;;;;;;;5.20;3.60;;;;;;;17.39;100.00;100723.88;2615343;36;20434;-58
2022/09/08 03:30:52;;;;;;;111.28;25.05;;;;;;;17.41;100.00;100713.66;2615551;36;20034;-58
2022/09/08 03:33:21;;;;;;;8.05;3.70;;;;;;;17.30;100.00;100717.66;2616341;36;20082;-58
2022/09/08 03:35:49;;;;;;;5.43;3.80;;;;;;;17.41;100.00;100713.66;2615777;36;20038;-57
2022/09/08 03:38:20;;;;;;;5.63;3.75;;;;;;;17.47;100.00;100712.91;2613912;36;20038;-57
2022/09/08 03:40:51;;;;;;;7.80;4.05;;;;;;;17.49;100.00;100699.97;2615617;31;20566;-58
2022/09/08 03:43:20;;;;;;;8.60;4.15;;;;;;;17.45;100.00;100701.38;2616145;31;20030;-57
2022/09/08 03:45:48;;;;;;;5.73;3.77;;;;;;;17.52;100.00;100698.78;2615464;36;20062;-58
2022/09/08 03:48:17;;;;;;;6.85;4.00;;;;;;;17.58;100.00;100703.47;2614134;36;20045;-57
2022/09/08 03:50:45;;;;;;;;;;;;;;;17.67;100.00;100702.34;2616316;36;20034;-58
2022/09/08 03:53:14;;;;;;;6.77;3.33;;;;;;;17.74;100.00;100697.00;2615309;36;19950;-57
2022/09/08 03:55:45;;;;;;;7.70;3.78;;;;;;;17.79;100.00;100689.09;2615834;36;20042;-57
2022/09/08 03:58:14;;;;;;;6.20;3.67;;;;;;;17.81;100.00;100676.13;2614636;36;20061;-57
2022/09/08 04:00:44;;;;;;;6.13;3.72;;;;;;;17.90;100.00;100678.81;2616355;36;20436;-57
2022/09/08 04:03:12;;;;;;;4.40;3.47;;;;;;;17.92;100.00;100683.03;2614651;36;20045;-57
2022/09/08 04:05:41;;;;;;;9.57;4.55;;;;;;;17.84;100.00;100686.69;2616058;31;20041;-57
2022/09/08 04:08:09;;;;;;;8.05;3.85;;;;;;;17.96;100.00;100678.03;2615277;31;20030;-57
2022/09/08 04:10:43;;;;;;;9.50;4.13;;;;;;;18.07;100.00;100674.84;2614788;36;20038;-57
2022/09/08 04:13:14;;;;;;;6.22;4.05;;;;;;;18.08;100.00;100665.66;2615379;36;20292;-57
2022/09/08 04:15:43;;;;;;;9.00;4.28;;;;;;;18.06;100.00;100670.44;2615937;36;20064;-57
2022/09/08 04:18:11;;;;;;;6.68;3.88;;;;;;;18.04;100.00;100669.78;2615810;31;20042;-57
2022/09/08 04:20:41;;;;;;;10.33;4.10;;;;;;;17.99;100.00;100683.09;2615892;36;20034;-57
2022/09/08 04:23:10;;;;;;;11.98;4.65;;;;;;;17.88;100.00;100691.75;2616037;31;20094;-57
2022/09/08 04:25:39;;;;;;;7.32;4.30;;;;;;;17.78;100.00;100720.06;2614410;36;20049;-57
2022/09/08 04:28:07;;;;;;;12.93;6.80;;;;;;;17.63;100.00;100739.13;2614638;31;20031;-55
2022/09/08 04:30:41;;;;;;;12.03;4.97;;;;;;;17.57;100.00;100680.00;2614317;36;20023;-55
2022/09/08 04:33:09;;;;;;;7.72;4.72;;;;;;;17.57;100.00;100646.50;2615694;31;20038;-56
2022/09/08 04:35:39;;;;;;;10.20;5.50;;;;;;;17.44;100.00;100694.22;2614606;36;20026;-56
2022/09/08 04:38:07;;;;;;;10.52;4.70;;;;;;;17.17;100.00;100718.28;2614951;36;20023;-57
2022/09/08 04:40:36;;;;;;;7.27;4.50;;;;;;;17.17;100.00;100707.41;2614708;36;20590;-58
2022/09/08 04:43:05;;;;;;;10.68;3.63;;;;;;;17.24;100.00;100712.97;2615666;36;20042;-57
2022/09/08 04:45:33;;;;;;;4.75;3.30;;;;;;;17.22;100.00;100725.06;2615258;36;20030;-54
2022/09/08 04:48:04;;;;;;;6.17;2.13;;;;;;;17.04;100.00;100753.41;2616049;31;20055;-57
2022/09/08 04:50:32;;;;;;;6.88;2.67;;;;;;;17.10;100.00;100760.00;2615032;31;20812;-57
2022/09/08 04:53:01;;;;;;;7.33;3.67;;;;;;;17.00;100.00;100741.19;2615444;36;20463;-54
2022/09/08 04:55:29;;;;;;;4.80;1.73;;;;;;;16.95;100.00;100743.63;2614886;36;20042;-54
2022/09/08 04:57:57;;;;;;;4.57;1.73;;;;;;;16.87;100.00;100743.63;2615782;36;20065;-55
2022/09/08 05:00:25;;;;;;;6.77;1.93;;;;;;;17.02;100.00;100744.59;2614468;36;20041;-55
2022/09/08 05:02:54;;;;;;;7.05;2.22;;;;;;;17.07;100.00;100728.56;2613931;36;20031;-55
2022/09/08 05:05:24;;;;;;;8.47;2.40;;;;;;;17.23;100.00;100710.44;2614713;36;20030;-54
2022/09/08 05:07:53;;;;;;;6.65;2.42;;;;;;;17.25;100.00;100689.31;2615126;36;20034;-50
2022/09/08 05:10:22;;;;;;;5.63;2.10;;;;;;;17.39;100.00;100710.28;2614766;31;20477;-53
2022/09/08 05:12:50;;;;;;;4.63;2.28;;;;;;;17.44;100.00;100712.44;2615694;36;20440;-55
2022/09/08 05:15:19;;;;;;;7.85;2.50;;;;;;;17.35;100.00;100719.84;2615248;36;20023;-56
2022/09/08 05:17:47;;;;;;;;;;;;;;;17.38;100.00;100718.63;2616096;36;20034;-55
2022/09/08 05:20:16;;;;;;;8.73;2.63;;;;;;;17.45;100.00;100725.03;2614485;36;19960;-54
2022/09/08 05:22:47;;;;;;;10.67;3.30;;;;;;;17.48;100.00;100720.03;2614886;36;20042;-59
2022/09/08 05:25:16;;;;;;;7.55;4.10;;;;;;;17.39;100.00;100715.72;2615110;31;20682;-55
2022/09/08 05:27:44;;;;;;;;;;;;;;;17.44;100.00;100713.28;2615548;36;20022;-53
2022/09/08 05:30:14;;;;;;;8.15;4.07;;;;;;;17.45;100.00;100714.97;2613566;36;20514;-53
2022/09/08 05:32:42;;;;;;;11.43;4.88;;;;;;;17.42;100.00;100714.53;2615450;36;20034;-55
2022/09/08 05:35:11;;;;;;;11.00;5.30;;;;;;;17.42;100.00;100720.78;2615398;31;20034;-54
2022/09/08 05:37:39;;;;;;;15.05;5.72;;;;;;;17.31;100.00;100713.94;2615176;36;20038;-55
2022/09/08 05:40:11;;;;;;;10.30;6.00;;;;;;;17.38;100.00;100730.34;2614854;31;20077;-53
2022/09/08 05:42:40;;;;;;;12.80;6.03;;;;;;;17.31;100.00;100732.97;2615035;36;20314;-55
2022/09/08 05:45:09;;;;;;;9.20;6.40;;;;;;;17.43;100.00;100733.38;2615315;36;20045;-57
2022/09/08 05:47:38;;;;;;;15.68;6.25;;;;;;;17.47;100.00;100729.22;2615444;36;20057;-54
2022/09/08 05:50:07;;;;;;;13.37;6.23;;;;;;;17.48;100.00;100728.22;2614864;36;20864;-56
2022/09/08 05:52:35;;;;;;;16.08;7.07;;;;;;;17.50;100.00;100737.06;2615374;36;20057;-55
2022/09/08 05:55:04;;;;;;;13.47;6.67;;;;;;;17.36;100.00;100751.47;2614837;36;20035;-53
2022/09/08 05:57:35;;;;;;;9.97;6.70;;;;;;;17.46;100.00;100760.22;2615915;36;20423;-57
2022/09/08 06:00:05;;;;;;;11.32;6.80;;;;;;;17.45;100.00;100755.78;2615280;36;20539;-56
2022/09/08 06:02:33;;;;;;;13.98;6.93;;;;;;;17.44;100.00;100761.41;2615177;31;20023;-56
2022/09/08 06:05:02;;;;;;;13.70;7.70;;;;;;;17.43;100.00;100771.47;2614773;36;20089;-56
2022/09/08 06:07:30;;;;;;;12.97;6.43;;;;;;;17.38;100.00;100771.16;2615386;36;20039;-56
2022/09/08 06:09:58;;;;;;;10.47;6.43;;;;;;;17.30;100.00;100774.78;2613954;36;20042;-56
2022/09/08 06:12:26;;;;;;;10.18;6.78;;;;;;;17.32;100.00;100785.50;2616178;31;20653;-53
2022/09/08 06:14:57;;;;;;;10.10;6.93;;;;;;;17.36;100.00;100781.38;2615411;31;20098;-55
2022/09/08 06:17:26;;;;;;;11.57;7.10;;;;;;;17.45;100.00;100777.56;2615278;36;20650;-57
2022/09/08 06:19:54;;;;;;;15.57;7.77;;;;;;;17.46;100.00;100776.53;2614101;36;20038;-56
2022/09/08 06:22:23;;;;;;;11.17;7.37;;;;;;;17.56;100.00;100769.97;2611670;36;20029;-53
2022/09/08 06:24:51;;;;;;;16.70;7.27;;;;;;;17.54;100.00;100767.44;2613566;36;20302;-56
2022/09/08 06:27:30;;;;;;;15.17;7.30;;;;;;;17.50;100.00;100766.97;2615088;36;20440;-52
2022/09/08 06:30:06;;;;;;;14.07;7.95;;;;;;;17.48;100.00;100765.47;2614802;36;20296;-55
2022/09/08 06:32:40;;;;;;;11.35;6.38;;;;;;;17.35;100.00;100768.81;2611315;36;20063;-57
2022/09/08 06:35:14;;;;;;;11.90;7.15;;;;;;;17.41;100.00;100757.19;2606659;36;20043;-57
2022/09/08 06:37:48;;;;;;;10.80;6.57;;;;;;;17.44;100.00;100743.22;2613915;36;20038;-56
2022/09/08 06:40:23;;;;;;;15.57;7.75;;;;;;;17.43;100.00;100733.38;2612804;36;20037;-54
2022/09/08 06:42:58;;;;;;;10.02;6.90;;;;;;;17.37;100.00;100741.41;2615426;36;20042;-53
2022/09/08 06:45:32;;;;;;;10.82;7.05;;;;;;;17.24;100.00;100740.16;2615798;36;20032;-54
2022/09/08 06:48:11;;;;;;;15.00;8.65;;;;;;;17.28;100.00;100751.53;2614515;36;21056;-55
2022/09/08 06:50:47;;;;;;;15.18;8.02;;;;;;;17.31;100.00;100741.13;2615499;36;20069;-54
2022/09/08 06:53:22;;;;;;;14.48;8.00;;;;;;;17.26;100.00;100743.53;2615271;36;20039;-53
2022/09/08 06:55:56;;;;;;;12.90;7.88;;;;;;;17.40;100.00;100731.03;2613510;36;20581;-55
2022/09/08 06:58:32;;;;;;;13.18;8.23;;;;;;;17.23;100.00;100743.91;2615790;36;20038;-56
2022/09/08 07:01:10;;;;;;;14.73;8.48;;;;;;;17.19;100.00;100731.69;2615441;36;20038;-56
2022/09/08 07:03:53;;;;;;;12.05;8.05;;;;;;;17.16;100.00;100741.06;2615149;36;20030;-56
2022/09/08 07:06:25;;;;;;;15.13;8.88;;;;;;;17.20;100.00;100732.56;2615929;36;20031;-56
2022/09/08 07:09:11;;;;;;;13.77;8.88;;;;;;;17.15;100.00;100736.66;2615286;36;20030;-56
2022/09/08 07:11:47;;;;;;;17.15;9.10;;;;;;;17.14;100.00;100745.00;2615923;36;20027;-55
2022/09/08 07:14:36;;;;;;;15.65;10.40;;;;;;;17.08;100.00;100743.03;2615891;36;20065;-55
2022/09/08 07:17:15;;;;;;;18.13;10.13;;;;;;;17.00;100.00;100735.75;2616205;36;20042;-54
2022/09/08 07:19:49;;;;;;;;;;;;;;;16.99;100.00;100742.25;2615772;36;20569;-57
2022/09/08 07:22:30;;;;;;;16.02;9.93;;;;;;;17.11;100.00;100756.25;2615014;36;19950;-56
2022/09/08 07:25:12;;;;;;;17.92;10.80;;;;;;;17.14;100.00;100748.56;2614536;36;20110;-58
2022/09/08 07:27:40;;;;;;;18.52;11.00;;;;;;;17.23;100.00;100749.34;2615888;36;20038;-57
2022/09/08 07:30:15;;;;;;;19.60;11.93;;;;;;;17.14;100.00;100747.72;2616272;36;20042;-56
2022/09/08 07:32:50;;;;;;;18.30;10.75;;;;;;;17.21;100.00;100758.72;2614241;36;20042;-55
2022/09/08 07:35:26;;;;;;;18.50;11.57;;;;;;;17.25;100.00;100762.75;2608972;36;20046;-56
2022/09/08 07:37:57;;;;;;;17.17;11.18;;;;;;;17.27;100.00;100768.84;2615603;36;20035;-56
2022/09/08 07:40:37;;;;;;;18.80;11.00;;;;;;;17.33;100.00;100770.88;2614765;36;20042;-55
2022/09/08 07:43:11;;;;;;;16.02;11.05;;;;;;;17.22;100.00;100768.56;2615317;36;20046;-55
2022/09/08 07:45:48;;;;;;;18.73;11.10;;;;;;;17.34;100.00;100769.81;2609496;36;20026;-55
2022/09/08 07:48:29;;;;;;;18.10;10.73;;;;;;;17.38;100.00;100757.56;2614270;36;20085;-54
2022/09/08 07:51:08;;;;;;;17.15;10.13;;;;;;;17.27;100.00;100757.97;2614386;36;20045;-55
2022/09/08 07:53:52;;;;;;;18.38;11.18;;;;;;;17.39;100.00;100769.28;2615876;36;20439;-57
2022/09/08 07:56:25;;;;;;;20.25;10.40;;;;;;;17.55;100.00;100760.97;2615568;31;20034;-55
2022/09/08 07:59:10;;;;;;;16.52;10.10;;;;;;;17.47;100.00;100761.88;2615102;36;20030;-56
2022/09/08 08:01:48;;;;;;;23.65;11.07;;;;;;;17.47;100.00;100755.59;2615144;36;20058;-55
2022/09/08 08:04:31;;;;;;;15.93;9.18;;;;;;;17.59;100.00;100765.00;2615004;36;20023;-56
2022/09/08 08:07:07;;;;;;;15.18;9.32;;;;;;;17.80;100.00;100767.03;2615718;36;20046;-57
2022/09/08 08:09:43;;;;;;;15.32;8.98;;;;;;;17.86;100.00;100768.16;2615024;36;20404;-55
2022/09/08 08:12:23;;;;;;;14.18;8.05;;;;;;;17.84;100.00;100762.03;2615938;31;20554;-57
2022/09/08 08:15:01;;;;;;;12.68;7.63;;;;;;;17.69;100.00;100767.47;2615475;36;20030;-56
2022/09/08 08:17:38;;;;;;;10.65;7.40;;;;;;;17.79;100.00;100770.78;2615026;36;20038;-55
2022/09/08 08:20:26;;;;;;;12.00;7.57;;;;;;;17.83;100.00;100772.09;2613451;31;20150;-56
2022/09/08 08:23:12;;;;;;;10.40;6.43;;;;;;;17.83;100.00;100777.53;2615086;36;20034;-56
2022/09/08 08:25:49;;;;;;;10.05;6.35;;;;;;;17.84;100.00;100784.69;2613932;36;20041;-56
2022/09/08 08:28:19;;;;;;;10.10;6.78;;;;;;;17.91;100.00;100786.69;2615790;36;20432;-57
2022/09/08 08:30:57;;;;;;;12.18;7.50;;;;;;;17.78;100.00;100777.25;2614913;36;20030;-57
2022/09/08 08:33:30;;;;;;;10.77;7.07;;;;;;;17.72;100.00;100794.31;2613875;36;20035;-57
2022/09/08 08:36:06;;;;;;;10.32;6.57;;;;;;;17.88;100.00;100795.19;2614914;36;20118;-55
2022/09/08 08:38:38;;;;;;;11.90;7.50;;;;;;;18.06;100.00;100792.16;2614576;36;20062;-56
2022/09/08 08:41:14;;;;;;;12.05;7.40;;;;;;;18.03;100.00;100790.63;2614222;36;20388;-57
2022/09/08 08:44:08;;;;;;;14.00;7.47;;;;;;;17.86;100.00;100793.50;2615219;36;20130;-56
2022/09/08 08:47:02;;;;;;;14.13;6.63;;;;;;;17.72;100.00;100796.19;2615751;36;20022;-56
2022/09/08 08:49:52;;;;;;;12.70;7.78;;;;;;;17.77;100.00;100810.09;2616252;36;20405;-56
2022/09/08 08:52:40;;;;;;;13.40;6.63;;;;;;;17.89;100.00;100808.63;2615505;31;20163;-55
2022/09/08 08:55:29;;;;;;;12.45;8.48;;;;;;;17.96;100.00;100806.03;2614552;36;20034;-56
2022/09/08 08:58:10;;;;;;;14.02;9.18;;;;;;;18.23;100.00;100809.13;2616113;36;20041;-55
2022/09/08 09:00:45;;;;;;;12.40;8.70;;;;;;;18.54;100.00;100807.06;2615603;36;20030;-54
2022/09/08 09:03:25;;;;;;;12.20;8.15;;;;;;;18.31;100.00;100806.31;2615030;31;20023;-57
2022/09/08 09:06:08;;;;;;;12.18;8.57;;;;;;;18.19;100.00;100803.22;2614767;36;20194;-55
2022/09/08 09:09:14;;;;;;;10.82;7.65;;;;;;;18.56;100.00;100799.56;2615298;36;20547;-55
2022/09/08 09:12:01;;;;;;;10.73;7.90;;;;;;;18.47;100.00;100800.66;2615248;36;20046;-55
2022/09/08 09:15:06;;;;;;;14.13;9.02;;;;;;;18.43;100.00;100799.34;2614389;36;20568;-56
2022/09/08 09:17:45;;;;;;;10.63;7.80;;;;;;;18.75;100.00;100802.69;2613680;36;20183;-56
2022/09/08 09:20:49;;;;;;;12.23;7.95;;;;;;;18.91;100.00;100791.59;2615970;31;20756;-56
2022/09/08 09:23:36;;;;;;;13.10;8.40;;;;;;;19.04;100.00;100795.50;2615082;31;20051;-56
2022/09/08 09:26:18;;;;;;;12.95;9.48;;;;;;;19.33;100.00;100796.41;2615018;36;20034;-53
2022/09/08 09:28:57;;;;;;;12.80;9.07;;;;;;;19.70;100.00;100789.81;2616204;31;20499;-56
2022/09/08 09:31:52;;;;;;;13.10;9.10;;;;;;;20.14;100.00;100785.13;2614289;36;20038;-55
2022/09/08 09:34:40;;;;;;;13.00;8.90;;;;;;;20.13;100.00;100773.31;2614318;36;20022;-55
2022/09/08 09:37:44;;;;;;;13.20;9.57;;;;;;;20.17;100.00;100779.25;2614726;31;20030;-55
2022/09/08 09:40:33;;;;;;;11.85;8.98;;;;;;;20.13;100.00;100778.78;2614371;36;20061;-55
2022/09/08 09:43:19;;;;;;;15.25;10.48;;;;;;;20.15;100.00;100769.56;2615583;36;20397;-52
2022/09/08 09:46:12;;;;;;;13.25;9.25;;;;;;;20.02;100.00;100775.78;2615277;36;20037;-54
2022/09/08 09:49:04;;;;;;;16.67;9.85;;;;;;;20.08;100.00;100769.50;2613983;31;20042;-54
2022/09/08 09:51:41;;;;;;;14.23;10.20;;;;;;;20.53;100.00;100769.09;2607958;36;20085;-55
2022/09/08 09:54:40;;;;;;;15.23;9.90;;;;;;;20.36;100.00;100765.88;2614354;36;20058;-54
2022/09/08 09:57:44;;;;;;;13.57;10.00;;;;;;;20.18;100.00;100764.50;2613093;36;20038;-53
2022/09/08 10:00:35;;;;;;;12.77;9.90;;;;;;;20.16;100.00;100766.63;2605972;36;20073;-51
2022/09/08 10:03:40;;;;;;;12.32;9.48;;;;;;;19.90;100.00;100756.38;2611660;36;20023;-53
2022/09/08 10:06:31;;;;;;;13.95;8.80;;;;;;;20.22;100.00;100754.03;2610661;31;20610;-53
2022/09/08 10:09:27;;;;;;;10.13;8.18;;;;;;;20.58;100.00;100748.31;2609250;36;20039;-52
2022/09/08 10:12:25;;;;;;;11.27;7.78;;;;;;;20.52;100.00;100745.53;2610688;31;20069;-49
2022/09/08 10:15:20;;;;;;;12.00;8.00;;;;;;;20.22;100.00;100752.13;2614349;36;20522;-50
2022/09/08 10:18:29;;;;;;;9.65;7.53;;;;;;;20.56;100.00;100747.66;2613869;31;20034;-52
2022/09/08 10:21:42;;;;;;;12.23;7.90;;;;;;;20.53;100.00;100750.81;2615029;36;20042;-53
2022/09/08 10:24:42;;;;;;;10.40;7.53;;;;;;;21.08;100.00;100745.31;2611957;31;20530;-50
2022/09/08 10:27:53;;;;;;;11.82;8.30;;;;;;;21.47;100.00;100745.53;2613786;36;20041;-52
2022/09/08 10:30:47;;;;;;;11.85;8.23;;;;;;;21.16;100.00;100744.25;2612133;31;20073;-54
2022/09/08 10:33:47;;;;;;;10.57;7.95;;;;;;;21.00;100.00;100745.50;2611717;36;20042;-50
2022/09/08 10:36:15;;;;;;;10.98;7.70;;;;;;;21.22;100.00;100735.22;2608950;31;20083;-52
2022/09/08 10:38:58;;;;;;;8.73;6.70;;;;;;;21.56;100.00;100727.84;2613510;36;20061;-53
2022/09/08 10:41:56;;;;;;;8.18;6.10;;;;;;;21.40;100.00;100728.25;2612662;36;20018;-52
2022/09/08 10:45:02;;;;;;;7.30;5.38;;;;;;;21.93;100.00;100720.00;2613776;36;20038;-52
2022/09/08 10:48:14;;;;;;;5.88;4.60;;;;;;;21.86;100.00;100721.91;2609507;36;20049;-54
2022/09/08 10:50:52;;;;;;;5.25;4.28;;;;;;;21.92;100.00;100712.81;2611842;36;20042;-54
2022/09/08 10:53:42;;;;;;;6.43;4.63;;;;;;;21.95;100.00;100712.41;2612005;31;20117;-54
2022/09/08 10:56:15;;;;;;;7.50;4.40;;;;;;;22.51;100.00;100718.31;2610897;36;20307;-50
2022/09/08 10:59:27;;;;;;;5.55;4.22;;;;;;;21.77;100.00;100707.59;2610553;36;20030;-50
2022/09/08 11:02:12;;;;;;;4.57;3.97;;;;;;;21.35;100.00;100712.47;2611338;36;20039;-51
2022/09/08 11:05:13;;;;;;;4.85;3.75;;;;;;;20.91;100.00;100719.41;2606298;31;20045;-50
2022/09/08 11:08:11;;;;;;;5.82;3.10;;;;;;;21.28;100.00;100707.00;2609633;36;20045;-49
2022/09/08 11:10:57;;;;;;;4.38;3.40;;;;;;;21.10;100.00;100710.34;2612488;36;20059;-51
2022/09/08 11:13:30;;;;;;;4.68;3.70;;;;;;;20.89;100.00;100705.94;2613893;31;20038;-50
2022/09/08 11:16:29;;;;;;;4.75;3.63;;;;;;;20.78;100.00;100721.03;2615645;36;20586;-50
2022/09/08 11:19:13;;;;;;;5.22;4.18;;;;;;;20.47;100.00;100729.75;2613042;36;20038;-51
2022/09/08 11:21:49;;;;;;;8.07;5.13;;;;;;;20.60;100.00;100728.97;2612031;36;20038;-52
2022/09/08 11:24:29;;;;;;;8.23;5.75;;;;;;;20.69;100.00;100722.28;2614433;31;20031;-54
2022/09/08 11:27:07;;;;;;;10.98;5.95;;;;;;;20.81;100.00;100728.81;2611965;36;20555;-54
2022/09/08 11:29:38;;;;;;;8.02;5.75;;;;;;;21.09;100.00;100719.59;2612344;36;20602;-53
2022/09/08 11:32:17;;;;;;;8.77;6.25;;;;;;;21.27;100.00;100718.97;2612120;36;20038;-54
2022/09/08 11:35:03;;;;;;;7.55;6.15;;;;;;;21.57;100.00;100717.72;2614319;31;20038;-53
2022/09/08 11:38:00;;;;;;;9.65;5.82;;;;;;;21.74;100.00;100718.97;2612383;36;20053;-51
2022/09/08 11:41:09;;;;;;;9.35;6.38;;;;;;;21.69;100.00;100722.34;2612867;36;20455;-52
2022/09/08 11:43:39;;;;;;;;;;;;;;;21.62;100.00;100729.75;2612458;36;20759;-51
2022/09/08 11:46:33;;;;;;;10.00;6.68;;;;;;;21.68;100.00;100728.88;2612209;36;19961;-52
2022/09/08 11:49:28;;;;;;;9.95;7.35;;;;;;;22.25;100.00;100720.09;2610298;31;20061;-51
2022/09/08 11:52:23;;;;;;;10.65;7.97;;;;;;;22.28;100.00;100716.94;2611890;31;20054;-54
2022/09/08 11:55:05;;;;;;;10.43;7.70;;;;;;;22.13;100.00;100719.09;2615812;36;20451;-52
2022/09/08 11:57:43;;;;;;;9.48;7.25;;;;;;;21.75;100.00;100715.19;2615619;36;20038;-51
2022/09/08 12:00:41;;;;;;;10.95;7.10;;;;;;;21.67;100.00;100710.78;2615419;36;20447;-50
2022/09/08 12:03:32;;;;;;;9.07;6.60;;;;;;;21.50;100.00;100721.31;2615315;31;20022;-50
2022/09/08 12:06:26;;;;;;;8.13;6.80;;;;;;;20.98;100.00;100715.59;2607948;36;20031;-52
2022/09/08 12:09:11;;;;;;;12.20;6.78;;;;;;;20.91;100.00;100717.50;2614912;36;20040;-49